< < Back
Terminal Aerodrome Forecast


Current Version              Previous Versions:   1  2  3  4  5  6  7  8  9  

Terminal Aerodrome Forecast

065
FTUS42 KTAE 021126
TAFTLH
TAF
KTLH 021126Z 0212/0312 01006KT P6SM BKN008
     FM021300 01008KT P6SM BKN015
     FM021500 36011KT P6SM BKN040
     FM022100 36013KT P6SM VCTS SCT025CB BKN040
     FM030100 29003KT P6SM SCT040 BKN100=

Latest METAR

859
SAUS80 KWBC 021400
MTRTLH
METAR KTLH 021353Z 03007KT 10SM OVC010 27/24 A2985 RMK AO2 SLP108
T02670239 $


USA.gov is the U.S. government's official web portal to all federal, state and local government web resources and services.